createdAt,value
2023-02-17T00:02:01.736Z,28.30
2023-02-17T00:07:04.237Z,24.80
2023-02-17T00:12:07.657Z,28.30
2023-02-17T00:17:11.716Z,31.50
2023-02-17T00:22:17.117Z,26.70
2023-02-17T00:27:20.167Z,29.90
2023-02-17T00:32:22.649Z,31.60
2023-02-17T00:37:25.677Z,32.00
2023-02-17T00:42:28.195Z,29.20
2023-02-17T00:47:30.869Z,29.70
2023-02-17T00:52:33.558Z,33.20
2023-02-17T00:57:36.126Z,32.10
2023-02-17T01:09:36.725Z,32.70
2023-02-17T01:14:39.536Z,32.70
2023-02-17T01:19:42.083Z,32.40
2023-02-17T01:24:44.613Z,29.30
2023-02-17T01:29:47.330Z,31.30
2023-02-17T01:34:50.159Z,29.00
2023-02-17T01:39:52.708Z,26.80
2023-02-17T01:45:01.018Z,34.00
2023-02-17T01:50:03.736Z,27.80
2023-02-17T01:55:11.249Z,32.00
2023-02-17T02:00:14.843Z,33.70
2023-02-17T02:05:20.102Z,33.10
2023-02-17T02:10:22.694Z,31.20
2023-02-17T02:15:31.818Z,33.00
2023-02-17T02:20:34.423Z,30.60
2023-02-17T02:25:40.968Z,29.90
2023-02-17T02:30:49.286Z,33.60
2023-02-17T02:36:01.756Z,33.60
2023-02-17T02:41:10.685Z,30.60
2023-02-17T02:46:13.201Z,24.40
2023-02-17T02:51:25.919Z,32.70
2023-02-17T02:56:33.611Z,17.30
2023-02-17T03:01:36.078Z,32.30
2023-02-17T03:06:47.748Z,22.60
2023-02-17T03:11:51.428Z,24.00
2023-02-17T03:16:54.296Z,24.40
2023-02-17T03:22:06.337Z,31.40
2023-02-17T03:27:08.924Z,30.80
2023-02-17T03:32:11.976Z,31.40
2023-02-17T03:37:14.731Z,31.00
2023-02-17T03:42:17.233Z,32.60
2023-02-17T03:47:19.725Z,30.00
2023-02-17T03:52:22.245Z,28.90
2023-02-17T03:57:24.770Z,29.00
2023-02-17T04:02:27.299Z,26.60
2023-02-17T04:07:29.902Z,28.80
2023-02-17T04:12:32.387Z,27.70
2023-02-17T04:17:37.810Z,27.90
2023-02-17T04:22:40.349Z,27.30
2023-02-17T04:27:42.879Z,29.50
2023-02-17T04:32:45.350Z,29.20
2023-02-17T04:37:48.017Z,28.00
2023-02-17T04:42:50.630Z,22.60
2023-02-17T04:47:53.138Z,21.40
2023-02-17T04:52:55.683Z,18.20
2023-02-17T04:57:58.182Z,26.20
2023-02-17T05:03:00.662Z,26.80
2023-02-17T05:08:03.696Z,29.20
2023-02-17T05:13:06.201Z,28.70
2023-02-17T05:18:08.704Z,27.60
2023-02-17T05:23:11.207Z,29.90
2023-02-17T05:28:13.766Z,28.40
2023-02-17T05:33:16.539Z,28.50
2023-02-17T05:38:19.148Z,28.20
2023-02-17T05:43:21.647Z,25.60
2023-02-17T05:48:24.142Z,26.20
2023-02-17T05:53:27.234Z,24.30
2023-02-17T05:58:30.392Z,26.40
2023-02-17T06:03:33.441Z,19.40
2023-02-17T06:08:36.650Z,26.40
2023-02-17T06:13:39.161Z,23.80
2023-02-17T06:18:41.677Z,23.20
2023-02-17T06:23:44.197Z,16.00
2023-02-17T06:28:46.744Z,25.30
2023-02-17T06:33:49.216Z,25.10
2023-02-17T06:38:51.801Z,25.10
2023-02-17T06:43:54.282Z,25.20
2023-02-17T06:48:56.977Z,25.50
2023-02-17T06:54:00.363Z,25.10
2023-02-17T06:59:03.514Z,23.10
2023-02-17T07:04:06.219Z,22.30
2023-02-17T07:09:11.363Z,25.20
2023-02-17T07:14:13.888Z,24.90
2023-02-17T07:19:16.578Z,29.00
2023-02-17T07:24:19.130Z,28.00
2023-02-17T07:29:22.954Z,28.80
2023-02-17T07:34:25.618Z,29.00
2023-02-17T07:39:28.116Z,29.00
2023-02-17T07:44:30.638Z,29.50
2023-02-17T07:49:33.155Z,26.60
2023-02-17T07:54:35.644Z,27.00
2023-02-17T07:59:38.121Z,29.70
2023-02-17T08:04:40.696Z,29.10
2023-02-17T08:09:46.227Z,26.00
2023-02-17T08:14:48.745Z,18.00
2023-02-17T08:19:51.264Z,28.20
2023-02-17T08:24:53.818Z,25.00
2023-02-17T08:29:56.636Z,24.30
2023-02-17T08:34:59.239Z,24.70
2023-02-17T08:40:02.160Z,24.50
2023-02-17T08:45:07.715Z,22.30
2023-02-17T08:50:15.958Z,14.50
2023-02-17T08:55:21.085Z,25.40
2023-02-17T09:00:23.868Z,27.20
2023-02-17T09:05:26.792Z,26.20
2023-02-17T09:10:34.435Z,24.10
2023-02-17T09:15:42.526Z,24.70
2023-02-17T09:20:45.617Z,22.80
2023-02-17T09:25:48.172Z,24.40
2023-02-17T09:30:53.356Z,20.90
2023-02-17T09:35:55.953Z,23.20
2023-02-17T09:41:06.525Z,19.40
2023-02-17T09:46:18.300Z,25.70
2023-02-17T09:51:29.156Z,19.90
2023-02-17T09:56:36.858Z,19.60
2023-02-17T10:01:40.960Z,17.50
2023-02-17T10:06:59.518Z,16.20
2023-02-17T10:12:09.741Z,22.50
2023-02-17T10:17:14.311Z,21.90
2023-02-17T10:22:55.071Z,17.20
2023-02-17T10:28:03.589Z,24.00
2023-02-17T10:33:30.767Z,24.20
2023-02-17T10:38:49.223Z,18.30
2023-02-17T10:43:51.940Z,23.10
2023-02-17T10:48:59.247Z,22.40
2023-02-17T10:54:11.506Z,21.50
2023-02-17T10:59:15.953Z,23.50
2023-02-17T11:04:18.494Z,20.90
2023-02-17T11:09:28.558Z,19.00
2023-02-17T11:14:33.245Z,19.50
2023-02-17T11:19:35.948Z,18.80
2023-02-17T11:24:38.650Z,17.50
2023-02-17T11:29:41.134Z,17.50
2023-02-17T11:34:44.350Z,15.40
2023-02-17T11:39:53.408Z,15.10
2023-02-17T11:44:58.305Z,14.80
2023-02-17T11:50:06.653Z,15.90
2023-02-17T11:55:17.899Z,9.30
2023-02-17T12:00:29.862Z,13.40
2023-02-17T12:05:42.617Z,13.90
2023-02-17T12:10:50.970Z,15.50
2023-02-17T12:15:59.317Z,16.00
2023-02-17T12:21:03.796Z,14.10
2023-02-17T12:26:16.582Z,14.50
2023-02-17T12:31:23.073Z,16.80
2023-02-17T12:36:33.989Z,15.40
2023-02-17T12:41:41.237Z,15.10
2023-02-17T12:46:49.291Z,16.70
2023-02-17T12:51:58.908Z,17.00
2023-02-17T12:57:01.333Z,14.90
2023-02-17T13:02:09.625Z,17.20
2023-02-17T13:07:16.340Z,16.60
2023-02-17T13:12:24.453Z,16.50
2023-02-17T13:17:28.776Z,14.50
2023-02-17T13:22:31.417Z,18.50
2023-02-17T13:27:37.285Z,19.80
2023-02-17T13:32:39.821Z,19.00
2023-02-17T13:37:46.027Z,18.90
2023-02-17T13:42:50.935Z,18.20
2023-02-17T13:47:56.540Z,18.90
2023-02-17T13:53:06.034Z,11.90
2023-02-17T13:58:11.156Z,16.90
2023-02-17T14:03:19.478Z,18.90
2023-02-17T14:08:27.816Z,16.10
2023-02-17T14:13:32.899Z,15.20
2023-02-17T14:18:42.950Z,14.50
2023-02-17T14:23:51.143Z,13.60
2023-02-17T14:28:56.319Z,13.80
2023-02-17T14:34:02.786Z,13.90
2023-02-17T14:39:08.239Z,13.80
2023-02-17T14:44:10.846Z,13.70
2023-02-17T14:49:13.400Z,13.00
2023-02-17T14:54:18.048Z,6.80
2023-02-17T14:59:20.604Z,12.00
2023-02-17T15:04:23.169Z,12.30
2023-02-17T15:09:30.252Z,11.50
2023-02-17T15:14:32.740Z,8.60
2023-02-17T15:19:35.596Z,10.20
2023-02-17T15:24:39.078Z,8.50
2023-02-17T15:29:41.639Z,8.30
2023-02-17T15:34:45.247Z,5.60
2023-02-17T15:39:47.782Z,8.50
2023-02-17T15:44:50.721Z,8.20
2023-02-17T15:49:53.431Z,7.80
2023-02-17T15:54:55.919Z,7.50
2023-02-17T15:59:58.464Z,7.70
2023-02-17T16:05:00.951Z,5.50
2023-02-17T16:10:04.868Z,10.30
2023-02-17T16:15:13.548Z,8.10
2023-02-17T16:20:19.593Z,6.80
2023-02-17T16:30:31.486Z,4.20
2023-02-17T16:35:34.120Z,5.60
2023-02-17T16:40:40.170Z,6.50
2023-02-17T16:50:50.697Z,6.00
2023-02-17T16:55:55.248Z,6.50
2023-02-17T17:00:57.792Z,4.90
2023-02-17T17:06:02.062Z,6.80
2023-02-17T17:11:04.695Z,6.60
2023-02-17T17:16:13.657Z,7.20
2023-02-17T17:21:18.654Z,7.20
2023-02-17T17:26:28.378Z,6.80
2023-02-17T17:31:31.031Z,5.20
2023-02-17T17:36:37.638Z,6.70
2023-02-17T17:41:40.392Z,6.30
2023-02-17T17:46:42.941Z,4.90
2023-02-17T17:51:45.704Z,5.90
2023-02-17T17:56:48.191Z,7.10
2023-02-17T18:01:50.746Z,7.90
2023-02-17T18:06:55.608Z,8.20
2023-02-17T18:12:00.358Z,5.90
2023-02-17T18:17:05.724Z,5.90
2023-02-17T18:22:08.267Z,7.70
2023-02-17T18:27:10.732Z,8.30
2023-02-17T18:32:13.388Z,7.70
2023-02-17T18:37:15.955Z,7.70
2023-02-17T18:42:18.704Z,7.40
2023-02-17T18:47:21.214Z,6.60
2023-02-17T18:52:23.746Z,6.30
2023-02-17T18:57:26.245Z,8.10
2023-02-17T19:02:28.783Z,7.30
2023-02-17T19:07:31.407Z,7.90
2023-02-17T19:12:34.254Z,7.20
2023-02-17T19:17:36.790Z,7.30
2023-02-17T19:22:39.785Z,7.50
2023-02-17T19:27:42.306Z,7.50
2023-02-17T19:32:44.857Z,7.80
2023-02-17T19:37:47.443Z,9.00
2023-02-17T19:42:50.253Z,10.20
2023-02-17T19:47:52.776Z,7.70
2023-02-17T19:52:57.863Z,6.30
2023-02-17T19:58:00.317Z,5.10
2023-02-17T20:03:03.200Z,4.90
2023-02-17T20:08:06.176Z,3.40
2023-02-17T20:13:08.679Z,2.80
2023-02-17T20:18:11.161Z,3.50
2023-02-17T20:23:15.626Z,2.30
2023-02-17T20:28:18.330Z,2.40
2023-02-17T20:33:20.804Z,2.10
2023-02-17T20:38:23.366Z,2.50
2023-02-17T20:43:26.605Z,2.40
2023-02-17T20:48:29.324Z,1.80
2023-02-17T20:53:31.796Z,2.10
2023-02-17T20:58:34.281Z,1.40
2023-02-17T21:03:37.491Z,1.80
2023-02-17T21:08:40.012Z,1.70
2023-02-17T21:13:42.530Z,2.10
2023-02-17T21:18:46.872Z,2.90
2023-02-17T21:24:06.252Z,1.80
2023-02-17T21:29:08.886Z,1.50
2023-02-17T21:34:11.396Z,1.90
2023-02-17T21:39:13.955Z,2.20
2023-02-17T21:44:19.419Z,1.90
2023-02-17T21:49:23.222Z,2.70
2023-02-17T21:54:25.814Z,2.00
2023-02-17T21:59:28.435Z,1.90
2023-02-17T22:04:31.072Z,2.50
2023-02-17T22:09:33.636Z,1.80
2023-02-17T22:14:36.162Z,1.50
2023-02-17T22:19:38.647Z,1.80
2023-02-17T22:24:43.670Z,1.50
2023-02-17T22:29:46.294Z,2.20
2023-02-17T22:34:48.768Z,2.00
2023-02-17T22:39:53.703Z,1.70
2023-02-17T22:44:56.255Z,1.40
2023-02-17T22:50:38.791Z,1.70
2023-02-17T22:55:41.304Z,1.80
2023-02-17T23:00:43.796Z,2.40
2023-02-17T23:05:46.793Z,2.20
2023-02-17T23:10:49.272Z,2.40
2023-02-17T23:15:51.761Z,2.00
2023-02-17T23:20:54.866Z,1.90
2023-02-17T23:25:57.408Z,1.80
2023-02-17T23:30:59.954Z,2.30
2023-02-17T23:36:05.741Z,2.10
2023-02-17T23:41:08.365Z,1.70
2023-02-17T23:46:11.305Z,1.90
2023-02-17T23:51:17.012Z,2.30
2023-02-17T23:56:24.792Z,1.80
